sensor_id;sensor_type;location;lat;lon;timestamp;temperature;humidity
20319;DHT22;10317;47.254;11.314;2023-07-31T00:02:23;15.80;99.90
20319;DHT22;10317;47.254;11.314;2023-07-31T00:04:49;15.80;99.90
20319;DHT22;10317;47.254;11.314;2023-07-31T00:07:15;15.80;99.90
20319;DHT22;10317;47.254;11.314;2023-07-31T00:09:40;15.80;99.90
20319;DHT22;10317;47.254;11.314;2023-07-31T00:12:06;15.70;99.90
20319;DHT22;10317;47.254;11.314;2023-07-31T00:14:32;15.70;99.90
20319;DHT22;10317;47.254;11.314;2023-07-31T00:16:58;15.70;99.90
20319;DHT22;10317;47.254;11.314;2023-07-31T00:19:23;15.70;99.90
20319;DHT22;10317;47.254;11.314;2023-07-31T00:21:49;15.70;99.90
20319;DHT22;10317;47.254;11.314;2023-07-31T00:24:15;15.70;99.90
20319;DHT22;10317;47.254;11.314;2023-07-31T00:26:40;15.70;99.90
20319;DHT22;10317;47.254;11.314;2023-07-31T00:29:06;15.60;99.90
20319;DHT22;10317;47.254;11.314;2023-07-31T00:31:31;15.50;99.90
20319;DHT22;10317;47.254;11.314;2023-07-31T00:33:57;15.50;99.90
20319;DHT22;10317;47.254;11.314;2023-07-31T00:36:23;15.50;99.90
20319;DHT22;10317;47.254;11.314;2023-07-31T00:38:48;15.50;99.90
20319;DHT22;10317;47.254;11.314;2023-07-31T00:41:14;15.50;99.90
20319;DHT22;10317;47.254;11.314;2023-07-31T00:43:40;15.50;99.90
20319;DHT22;10317;47.254;11.314;2023-07-31T00:46:06;15.50;99.90
20319;DHT22;10317;47.254;11.314;2023-07-31T00:48:32;15.50;99.90
20319;DHT22;10317;47.254;11.314;2023-07-31T00:50:59;15.50;99.90
20319;DHT22;10317;47.254;11.314;2023-07-31T00:53:26;15.50;99.90
20319;DHT22;10317;47.254;11.314;2023-07-31T00:55:53;15.40;99.90
20319;DHT22;10317;47.254;11.314;2023-07-31T00:58:18;15.40;99.90
20319;DHT22;10317;47.254;11.314;2023-07-31T01:00:44;15.40;99.90
20319;DHT22;10317;47.254;11.314;2023-07-31T01:03:11;15.40;99.90
20319;DHT22;10317;47.254;11.314;2023-07-31T01:05:39;15.40;99.90
20319;DHT22;10317;47.254;11.314;2023-07-31T01:08:27;15.40;99.90
20319;DHT22;10317;47.254;11.314;2023-07-31T01:11:09;15.40;99.90
20319;DHT22;10317;47.254;11.314;2023-07-31T01:13:35;15.30;99.90
20319;DHT22;10317;47.254;11.314;2023-07-31T01:16:01;15.30;99.90
20319;DHT22;10317;47.254;11.314;2023-07-31T01:18:27;15.30;99.90
20319;DHT22;10317;47.254;11.314;2023-07-31T01:21:03;15.30;99.90
20319;DHT22;10317;47.254;11.314;2023-07-31T01:23:57;15.30;99.90
20319;DHT22;10317;47.254;11.314;2023-07-31T01:26:31;15.20;99.90
20319;DHT22;10317;47.254;11.314;2023-07-31T01:29:07;15.30;99.90
20319;DHT22;10317;47.254;11.314;2023-07-31T01:31:36;15.20;99.90
20319;DHT22;10317;47.254;11.314;2023-07-31T01:34:03;15.20;99.90
20319;DHT22;10317;47.254;11.314;2023-07-31T01:36:30;15.20;99.90
20319;DHT22;10317;47.254;11.314;2023-07-31T01:39:00;15.20;99.90
20319;DHT22;10317;47.254;11.314;2023-07-31T01:41:27;15.20;99.90
20319;DHT22;10317;47.254;11.314;2023-07-31T01:43:52;15.20;99.90
20319;DHT22;10317;47.254;11.314;2023-07-31T01:46:18;15.10;99.90
20319;DHT22;10317;47.254;11.314;2023-07-31T01:48:44;15.10;99.90
20319;DHT22;10317;47.254;11.314;2023-07-31T01:51:09;15.00;99.90
20319;DHT22;10317;47.254;11.314;2023-07-31T01:53:35;15.00;99.90
20319;DHT22;10317;47.254;11.314;2023-07-31T01:56:01;15.00;99.90
20319;DHT22;10317;47.254;11.314;2023-07-31T01:58:26;15.00;99.90
20319;DHT22;10317;47.254;11.314;2023-07-31T02:00:52;14.90;99.90
20319;DHT22;10317;47.254;11.314;2023-07-31T02:03:18;14.90;99.90
20319;DHT22;10317;47.254;11.314;2023-07-31T02:05:48;14.90;99.90
20319;DHT22;10317;47.254;11.314;2023-07-31T02:08:14;14.90;99.90
20319;DHT22;10317;47.254;11.314;2023-07-31T02:10:40;14.90;99.90
20319;DHT22;10317;47.254;11.314;2023-07-31T02:13:05;14.80;99.90
20319;DHT22;10317;47.254;11.314;2023-07-31T02:15:31;14.80;99.90
20319;DHT22;10317;47.254;11.314;2023-07-31T02:17:57;14.80;99.90
20319;DHT22;10317;47.254;11.314;2023-07-31T02:20:23;14.80;99.90
20319;DHT22;10317;47.254;11.314;2023-07-31T02:22:49;14.80;99.90
20319;DHT22;10317;47.254;11.314;2023-07-31T02:25:14;14.70;99.90
20319;DHT22;10317;47.254;11.314;2023-07-31T02:27:40;14.70;99.90
20319;DHT22;10317;47.254;11.314;2023-07-31T02:30:06;14.70;99.90
20319;DHT22;10317;47.254;11.314;2023-07-31T02:32:32;14.70;99.90
20319;DHT22;10317;47.254;11.314;2023-07-31T02:34:58;14.70;99.90
20319;DHT22;10317;47.254;11.314;2023-07-31T02:37:24;14.60;99.90
20319;DHT22;10317;47.254;11.314;2023-07-31T02:39:50;14.60;99.90
20319;DHT22;10317;47.254;11.314;2023-07-31T02:42:15;14.60;99.90
20319;DHT22;10317;47.254;11.314;2023-07-31T02:44:41;14.60;99.90
20319;DHT22;10317;47.254;11.314;2023-07-31T02:47:07;14.50;99.90
20319;DHT22;10317;47.254;11.314;2023-07-31T02:49:32;14.50;99.90
20319;DHT22;10317;47.254;11.314;2023-07-31T02:51:58;14.50;99.90
20319;DHT22;10317;47.254;11.314;2023-07-31T02:54:23;14.40;99.90
20319;DHT22;10317;47.254;11.314;2023-07-31T02:56:49;14.40;99.90
20319;DHT22;10317;47.254;11.314;2023-07-31T02:59:15;14.40;99.90
20319;DHT22;10317;47.254;11.314;2023-07-31T03:01:40;14.40;99.90
20319;DHT22;10317;47.254;11.314;2023-07-31T03:04:07;14.40;99.90
20319;DHT22;10317;47.254;11.314;2023-07-31T03:06:33;14.30;99.90
20319;DHT22;10317;47.254;11.314;2023-07-31T03:08:58;14.30;99.90
20319;DHT22;10317;47.254;11.314;2023-07-31T03:11:24;14.30;99.90
20319;DHT22;10317;47.254;11.314;2023-07-31T03:13:49;14.30;99.90
20319;DHT22;10317;47.254;11.314;2023-07-31T03:16:15;14.20;99.90
20319;DHT22;10317;47.254;11.314;2023-07-31T03:18:41;14.20;99.90
20319;DHT22;10317;47.254;11.314;2023-07-31T03:21:06;14.20;99.90
20319;DHT22;10317;47.254;11.314;2023-07-31T03:23:32;14.20;99.90
20319;DHT22;10317;47.254;11.314;2023-07-31T03:26:00;14.10;99.90
20319;DHT22;10317;47.254;11.314;2023-07-31T03:28:26;14.10;99.90
20319;DHT22;10317;47.254;11.314;2023-07-31T03:30:52;14.10;99.90
20319;DHT22;10317;47.254;11.314;2023-07-31T03:33:18;14.10;99.90
20319;DHT22;10317;47.254;11.314;2023-07-31T03:35:44;14.10;99.90
20319;DHT22;10317;47.254;11.314;2023-07-31T03:38:10;14.00;99.90
20319;DHT22;10317;47.254;11.314;2023-07-31T03:40:35;14.00;99.90
20319;DHT22;10317;47.254;11.314;2023-07-31T03:43:01;14.00;99.90
20319;DHT22;10317;47.254;11.314;2023-07-31T03:45:26;14.00;99.90
20319;DHT22;10317;47.254;11.314;2023-07-31T03:47:52;14.00;99.90
20319;DHT22;10317;47.254;11.314;2023-07-31T03:50:20;14.00;99.90
20319;DHT22;10317;47.254;11.314;2023-07-31T03:52:45;13.90;99.90
20319;DHT22;10317;47.254;11.314;2023-07-31T03:55:11;13.90;99.90
20319;DHT22;10317;47.254;11.314;2023-07-31T03:57:36;13.90;99.90
20319;DHT22;10317;47.254;11.314;2023-07-31T04:00:03;13.80;99.90
20319;DHT22;10317;47.254;11.314;2023-07-31T04:02:29;13.80;99.90
20319;DHT22;10317;47.254;11.314;2023-07-31T04:04:54;13.80;99.90
20319;DHT22;10317;47.254;11.314;2023-07-31T04:07:20;13.70;99.90
20319;DHT22;10317;47.254;11.314;2023-07-31T04:09:46;13.70;99.90
20319;DHT22;10317;47.254;11.314;2023-07-31T04:12:11;13.70;99.90
20319;DHT22;10317;47.254;11.314;2023-07-31T04:14:37;13.70;99.90
20319;DHT22;10317;47.254;11.314;2023-07-31T04:17:03;13.70;99.90
20319;DHT22;10317;47.254;11.314;2023-07-31T04:19:28;13.70;99.90
20319;DHT22;10317;47.254;11.314;2023-07-31T04:21:54;13.70;99.90
20319;DHT22;10317;47.254;11.314;2023-07-31T04:24:19;13.70;99.90
20319;DHT22;10317;47.254;11.314;2023-07-31T04:26:50;13.70;99.90
20319;DHT22;10317;47.254;11.314;2023-07-31T04:29:16;13.70;99.90
20319;DHT22;10317;47.254;11.314;2023-07-31T04:31:42;13.70;99.90
20319;DHT22;10317;47.254;11.314;2023-07-31T04:34:07;13.70;99.90
20319;DHT22;10317;47.254;11.314;2023-07-31T04:36:34;13.80;99.90
20319;DHT22;10317;47.254;11.314;2023-07-31T04:39:00;13.80;99.90
20319;DHT22;10317;47.254;11.314;2023-07-31T04:41:26;13.80;99.90
20319;DHT22;10317;47.254;11.314;2023-07-31T04:43:51;13.80;99.90
20319;DHT22;10317;47.254;11.314;2023-07-31T04:46:17;13.80;99.90
20319;DHT22;10317;47.254;11.314;2023-07-31T04:48:43;13.80;99.90
20319;DHT22;10317;47.254;11.314;2023-07-31T04:51:08;13.90;99.90
20319;DHT22;10317;47.254;11.314;2023-07-31T04:53:37;13.90;99.90
20319;DHT22;10317;47.254;11.314;2023-07-31T04:56:03;13.90;99.90
20319;DHT22;10317;47.254;11.314;2023-07-31T04:58:28;13.90;99.90
20319;DHT22;10317;47.254;11.314;2023-07-31T05:00:54;13.90;99.90
20319;DHT22;10317;47.254;11.314;2023-07-31T05:03:20;14.00;99.90
20319;DHT22;10317;47.254;11.314;2023-07-31T05:05:45;14.10;99.90
20319;DHT22;10317;47.254;11.314;2023-07-31T05:08:11;14.20;99.90
20319;DHT22;10317;47.254;11.314;2023-07-31T05:10:37;14.20;99.90
20319;DHT22;10317;47.254;11.314;2023-07-31T05:13:03;14.40;99.90
20319;DHT22;10317;47.254;11.314;2023-07-31T05:15:29;14.50;99.90
20319;DHT22;10317;47.254;11.314;2023-07-31T05:17:54;14.50;99.90
20319;DHT22;10317;47.254;11.314;2023-07-31T05:20:21;14.70;99.90
20319;DHT22;10317;47.254;11.314;2023-07-31T05:22:46;14.80;99.90
20319;DHT22;10317;47.254;11.314;2023-07-31T05:25:13;14.90;99.90
20319;DHT22;10317;47.254;11.314;2023-07-31T05:27:38;15.00;99.90
20319;DHT22;10317;47.254;11.314;2023-07-31T05:30:05;15.00;99.90
20319;DHT22;10317;47.254;11.314;2023-07-31T05:32:31;15.10;99.90
20319;DHT22;10317;47.254;11.314;2023-07-31T05:34:56;15.10;99.90
20319;DHT22;10317;47.254;11.314;2023-07-31T05:37:22;15.10;99.90
20319;DHT22;10317;47.254;11.314;2023-07-31T05:39:48;15.20;99.90
20319;DHT22;10317;47.254;11.314;2023-07-31T05:42:14;15.20;99.90
20319;DHT22;10317;47.254;11.314;2023-07-31T05:44:39;15.20;99.90
20319;DHT22;10317;47.254;11.314;2023-07-31T05:47:05;15.30;99.90
20319;DHT22;10317;47.254;11.314;2023-07-31T05:49:31;15.40;99.90
20319;DHT22;10317;47.254;11.314;2023-07-31T05:51:56;15.40;99.90
20319;DHT22;10317;47.254;11.314;2023-07-31T05:54:22;15.60;99.90
20319;DHT22;10317;47.254;11.314;2023-07-31T05:56:48;15.80;99.90
20319;DHT22;10317;47.254;11.314;2023-07-31T05:59:13;15.90;99.90
20319;DHT22;10317;47.254;11.314;2023-07-31T06:01:39;16.30;99.90
20319;DHT22;10317;47.254;11.314;2023-07-31T06:04:05;16.50;99.90
20319;DHT22;10317;47.254;11.314;2023-07-31T06:06:31;17.00;99.90
20319;DHT22;10317;47.254;11.314;2023-07-31T06:08:56;17.60;99.90
20319;DHT22;10317;47.254;11.314;2023-07-31T06:11:22;18.30;99.90
20319;DHT22;10317;47.254;11.314;2023-07-31T06:13:48;18.90;99.90
20319;DHT22;10317;47.254;11.314;2023-07-31T06:16:16;19.60;99.90
20319;DHT22;10317;47.254;11.314;2023-07-31T06:18:42;20.10;99.90
20319;DHT22;10317;47.254;11.314;2023-07-31T06:21:09;20.30;99.90
20319;DHT22;10317;47.254;11.314;2023-07-31T06:23:35;20.70;99.90
20319;DHT22;10317;47.254;11.314;2023-07-31T06:26:00;20.80;99.90
20319;DHT22;10317;47.254;11.314;2023-07-31T06:28:30;21.40;99.90
20319;DHT22;10317;47.254;11.314;2023-07-31T06:30:56;21.60;99.90
20319;DHT22;10317;47.254;11.314;2023-07-31T06:33:22;21.60;99.90
20319;DHT22;10317;47.254;11.314;2023-07-31T06:35:47;21.30;99.90
20319;DHT22;10317;47.254;11.314;2023-07-31T06:38:13;21.60;99.90
20319;DHT22;10317;47.254;11.314;2023-07-31T06:40:39;21.70;99.90
20319;DHT22;10317;47.254;11.314;2023-07-31T06:43:05;22.00;99.90
20319;DHT22;10317;47.254;11.314;2023-07-31T06:45:35;22.30;99.90
20319;DHT22;10317;47.254;11.314;2023-07-31T06:48:01;22.60;99.90
20319;DHT22;10317;47.254;11.314;2023-07-31T06:50:31;22.70;99.90
20319;DHT22;10317;47.254;11.314;2023-07-31T06:52:57;23.00;99.30
20319;DHT22;10317;47.254;11.314;2023-07-31T06:55:23;23.50;98.40
20319;DHT22;10317;47.254;11.314;2023-07-31T06:57:51;23.80;97.20
20319;DHT22;10317;47.254;11.314;2023-07-31T07:00:17;24.10;95.30
20319;DHT22;10317;47.254;11.314;2023-07-31T07:02:43;24.10;95.80
20319;DHT22;10317;47.254;11.314;2023-07-31T07:05:09;23.80;95.80
20319;DHT22;10317;47.254;11.314;2023-07-31T07:07:36;23.60;95.10
20319;DHT22;10317;47.254;11.314;2023-07-31T07:10:02;22.90;96.50
20319;DHT22;10317;47.254;11.314;2023-07-31T07:12:30;22.30;96.60
20319;DHT22;10317;47.254;11.314;2023-07-31T07:14:55;21.70;98.10
20319;DHT22;10317;47.254;11.314;2023-07-31T07:17:23;21.30;99.20
20319;DHT22;10317;47.254;11.314;2023-07-31T07:19:48;20.90;99.90
20319;DHT22;10317;47.254;11.314;2023-07-31T07:22:14;21.00;99.90
20319;DHT22;10317;47.254;11.314;2023-07-31T07:24:40;21.10;99.90
20319;DHT22;10317;47.254;11.314;2023-07-31T07:27:06;21.30;99.90
20319;DHT22;10317;47.254;11.314;2023-07-31T07:29:34;21.30;99.90
20319;DHT22;10317;47.254;11.314;2023-07-31T07:31:59;21.40;99.80
20319;DHT22;10317;47.254;11.314;2023-07-31T07:34:27;21.40;99.90
20319;DHT22;10317;47.254;11.314;2023-07-31T07:36:53;21.10;99.90
20319;DHT22;10317;47.254;11.314;2023-07-31T07:39:19;20.70;99.90
20319;DHT22;10317;47.254;11.314;2023-07-31T07:41:44;20.90;99.90
20319;DHT22;10317;47.254;11.314;2023-07-31T07:44:10;21.30;99.90
20319;DHT22;10317;47.254;11.314;2023-07-31T07:46:36;21.40;99.90
20319;DHT22;10317;47.254;11.314;2023-07-31T07:49:01;21.40;99.90
20319;DHT22;10317;47.254;11.314;2023-07-31T07:51:27;21.20;99.90
20319;DHT22;10317;47.254;11.314;2023-07-31T07:53:53;21.10;99.90
20319;DHT22;10317;47.254;11.314;2023-07-31T07:56:19;21.10;99.90
20319;DHT22;10317;47.254;11.314;2023-07-31T07:58:44;21.30;99.90
20319;DHT22;10317;47.254;11.314;2023-07-31T08:01:13;21.30;99.90
20319;DHT22;10317;47.254;11.314;2023-07-31T08:03:39;21.30;99.90
20319;DHT22;10317;47.254;11.314;2023-07-31T08:06:04;21.60;99.90
20319;DHT22;10317;47.254;11.314;2023-07-31T08:08:30;22.00;99.40
20319;DHT22;10317;47.254;11.314;2023-07-31T08:10:56;22.00;99.90
20319;DHT22;10317;47.254;11.314;2023-07-31T08:13:21;22.20;99.30
20319;DHT22;10317;47.254;11.314;2023-07-31T08:15:47;22.60;98.10
20319;DHT22;10317;47.254;11.314;2023-07-31T08:18:13;22.90;97.10
20319;DHT22;10317;47.254;11.314;2023-07-31T08:20:38;23.50;96.00
20319;DHT22;10317;47.254;11.314;2023-07-31T08:23:04;23.30;94.30
20319;DHT22;10317;47.254;11.314;2023-07-31T08:25:30;23.20;94.60
20319;DHT22;10317;47.254;11.314;2023-07-31T08:27:55;22.90;94.90
20319;DHT22;10317;47.254;11.314;2023-07-31T08:30:21;22.60;95.50
20319;DHT22;10317;47.254;11.314;2023-07-31T08:32:47;22.40;95.90
20319;DHT22;10317;47.254;11.314;2023-07-31T08:35:13;22.20;96.50
20319;DHT22;10317;47.254;11.314;2023-07-31T08:37:39;22.20;95.40
20319;DHT22;10317;47.254;11.314;2023-07-31T08:40:05;22.20;97.40
20319;DHT22;10317;47.254;11.314;2023-07-31T08:42:32;22.30;96.70
20319;DHT22;10317;47.254;11.314;2023-07-31T08:44:59;22.30;95.90
20319;DHT22;10317;47.254;11.314;2023-07-31T08:47:26;22.40;95.90
20319;DHT22;10317;47.254;11.314;2023-07-31T08:49:53;22.40;94.80
20319;DHT22;10317;47.254;11.314;2023-07-31T08:52:20;22.30;94.90
20319;DHT22;10317;47.254;11.314;2023-07-31T08:54:45;22.10;95.80
20319;DHT22;10317;47.254;11.314;2023-07-31T08:57:11;22.00;96.30
20319;DHT22;10317;47.254;11.314;2023-07-31T08:59:38;22.00;95.80
20319;DHT22;10317;47.254;11.314;2023-07-31T09:02:08;22.20;96.30
20319;DHT22;10317;47.254;11.314;2023-07-31T09:04:34;22.50;96.10
20319;DHT22;10317;47.254;11.314;2023-07-31T09:07:02;22.20;93.40
20319;DHT22;10317;47.254;11.314;2023-07-31T09:09:31;22.30;94.20
20319;DHT22;10317;47.254;11.314;2023-07-31T09:11:58;22.90;92.90
20319;DHT22;10317;47.254;11.314;2023-07-31T09:14:25;23.40;92.20
20319;DHT22;10317;47.254;11.314;2023-07-31T09:16:52;23.60;91.40
20319;DHT22;10317;47.254;11.314;2023-07-31T09:19:34;24.00;90.60
20319;DHT22;10317;47.254;11.314;2023-07-31T09:22:03;24.30;89.90
20319;DHT22;10317;47.254;11.314;2023-07-31T09:24:30;24.70;88.60
20319;DHT22;10317;47.254;11.314;2023-07-31T09:26:57;24.80;90.00
20319;DHT22;10317;47.254;11.314;2023-07-31T09:29:25;24.50;88.60
20319;DHT22;10317;47.254;11.314;2023-07-31T09:31:52;24.20;89.80
20319;DHT22;10317;47.254;11.314;2023-07-31T09:34:18;23.90;90.10
20319;DHT22;10317;47.254;11.314;2023-07-31T09:36:46;23.80;89.40
20319;DHT22;10317;47.254;11.314;2023-07-31T09:39:13;24.00;88.10
20319;DHT22;10317;47.254;11.314;2023-07-31T09:41:43;24.40;87.80
20319;DHT22;10317;47.254;11.314;2023-07-31T09:44:09;24.90;89.30
20319;DHT22;10317;47.254;11.314;2023-07-31T09:46:36;25.50;87.50
20319;DHT22;10317;47.254;11.314;2023-07-31T09:49:08;25.80;85.80
20319;DHT22;10317;47.254;11.314;2023-07-31T09:51:35;26.00;84.90
20319;DHT22;10317;47.254;11.314;2023-07-31T09:54:13;26.40;82.60
20319;DHT22;10317;47.254;11.314;2023-07-31T09:56:44;26.40;80.00
20319;DHT22;10317;47.254;11.314;2023-07-31T09:59:13;26.20;79.50
20319;DHT22;10317;47.254;11.314;2023-07-31T10:01:41;26.00;77.60
20319;DHT22;10317;47.254;11.314;2023-07-31T10:04:08;26.00;78.40
20319;DHT22;10317;47.254;11.314;2023-07-31T10:06:36;25.80;77.60
20319;DHT22;10317;47.254;11.314;2023-07-31T10:09:10;25.80;77.20
20319;DHT22;10317;47.254;11.314;2023-07-31T10:11:47;25.70;80.30
20319;DHT22;10317;47.254;11.314;2023-07-31T10:14:19;25.90;76.90
20319;DHT22;10317;47.254;11.314;2023-07-31T10:16:45;25.80;78.80
20319;DHT22;10317;47.254;11.314;2023-07-31T10:19:11;25.90;80.00
20319;DHT22;10317;47.254;11.314;2023-07-31T10:21:37;26.00;84.00
20319;DHT22;10317;47.254;11.314;2023-07-31T10:24:07;26.20;79.70
20319;DHT22;10317;47.254;11.314;2023-07-31T10:26:35;26.20;77.30
20319;DHT22;10317;47.254;11.314;2023-07-31T10:29:03;26.20;75.10
20319;DHT22;10317;47.254;11.314;2023-07-31T10:31:30;26.30;77.50
20319;DHT22;10317;47.254;11.314;2023-07-31T10:33:57;26.20;77.00
20319;DHT22;10317;47.254;11.314;2023-07-31T10:36:24;26.20;75.40
20319;DHT22;10317;47.254;11.314;2023-07-31T10:38:51;26.00;75.70
20319;DHT22;10317;47.254;11.314;2023-07-31T10:41:16;26.00;77.70
20319;DHT22;10317;47.254;11.314;2023-07-31T10:43:43;26.20;78.40
20319;DHT22;10317;47.254;11.314;2023-07-31T10:46:12;25.90;74.00
20319;DHT22;10317;47.254;11.314;2023-07-31T10:48:40;26.20;76.70
20319;DHT22;10317;47.254;11.314;2023-07-31T10:51:12;26.40;75.70
20319;DHT22;10317;47.254;11.314;2023-07-31T10:53:39;26.60;72.80
20319;DHT22;10317;47.254;11.314;2023-07-31T10:56:10;26.70;73.60
20319;DHT22;10317;47.254;11.314;2023-07-31T10:58:44;26.90;70.80
20319;DHT22;10317;47.254;11.314;2023-07-31T11:01:10;26.80;75.00
20319;DHT22;10317;47.254;11.314;2023-07-31T11:03:49;26.70;74.40
20319;DHT22;10317;47.254;11.314;2023-07-31T11:06:17;26.40;75.60
20319;DHT22;10317;47.254;11.314;2023-07-31T11:08:48;26.70;76.10
20319;DHT22;10317;47.254;11.314;2023-07-31T11:11:16;27.00;74.90
20319;DHT22;10317;47.254;11.314;2023-07-31T11:13:52;27.10;72.90
20319;DHT22;10317;47.254;11.314;2023-07-31T11:16:23;26.70;71.10
20319;DHT22;10317;47.254;11.314;2023-07-31T11:18:50;26.60;70.00
20319;DHT22;10317;47.254;11.314;2023-07-31T11:23:54;26.50;70.70
20319;DHT22;10317;47.254;11.314;2023-07-31T11:26:24;26.50;73.10
20319;DHT22;10317;47.254;11.314;2023-07-31T11:28:50;26.60;71.40
20319;DHT22;10317;47.254;11.314;2023-07-31T11:31:17;26.70;74.30
20319;DHT22;10317;47.254;11.314;2023-07-31T11:33:43;26.70;73.70
20319;DHT22;10317;47.254;11.314;2023-07-31T11:36:16;26.70;72.90
20319;DHT22;10317;47.254;11.314;2023-07-31T11:38:42;26.70;70.30
20319;DHT22;10317;47.254;11.314;2023-07-31T11:41:08;26.80;72.00
20319;DHT22;10317;47.254;11.314;2023-07-31T11:43:34;26.80;69.30
20319;DHT22;10317;47.254;11.314;2023-07-31T11:46:02;26.80;68.40
20319;DHT22;10317;47.254;11.314;2023-07-31T11:48:37;26.80;67.80
20319;DHT22;10317;47.254;11.314;2023-07-31T11:51:10;26.70;69.60
20319;DHT22;10317;47.254;11.314;2023-07-31T11:53:49;26.80;72.00
20319;DHT22;10317;47.254;11.314;2023-07-31T11:56:18;26.90;69.50
20319;DHT22;10317;47.254;11.314;2023-07-31T11:58:50;26.80;68.40
20319;DHT22;10317;47.254;11.314;2023-07-31T12:01:19;26.80;65.80
20319;DHT22;10317;47.254;11.314;2023-07-31T12:03:47;26.70;67.20
20319;DHT22;10317;47.254;11.314;2023-07-31T12:06:12;26.60;67.60
20319;DHT22;10317;47.254;11.314;2023-07-31T12:08:38;26.70;66.90
20319;DHT22;10317;47.254;11.314;2023-07-31T12:11:05;26.70;65.00
20319;DHT22;10317;47.254;11.314;2023-07-31T12:13:32;26.80;65.20
20319;DHT22;10317;47.254;11.314;2023-07-31T12:16:00;27.00;64.70
20319;DHT22;10317;47.254;11.314;2023-07-31T12:18:28;27.10;62.30
20319;DHT22;10317;47.254;11.314;2023-07-31T12:20:59;27.20;63.90
20319;DHT22;10317;47.254;11.314;2023-07-31T12:23:30;27.20;62.30
20319;DHT22;10317;47.254;11.314;2023-07-31T12:26:10;27.20;60.20
20319;DHT22;10317;47.254;11.314;2023-07-31T12:28:44;27.30;65.80
20319;DHT22;10317;47.254;11.314;2023-07-31T12:31:11;27.50;68.10
20319;DHT22;10317;47.254;11.314;2023-07-31T12:33:38;27.70;65.40
20319;DHT22;10317;47.254;11.314;2023-07-31T12:36:12;27.80;63.80
20319;DHT22;10317;47.254;11.314;2023-07-31T12:38:39;27.70;60.00
20319;DHT22;10317;47.254;11.314;2023-07-31T12:41:04;27.70;63.00
20319;DHT22;10317;47.254;11.314;2023-07-31T12:43:33;27.90;60.80
20319;DHT22;10317;47.254;11.314;2023-07-31T12:45:59;28.00;59.10
20319;DHT22;10317;47.254;11.314;2023-07-31T12:48:25;28.10;60.00
20319;DHT22;10317;47.254;11.314;2023-07-31T12:50:50;28.10;60.00
20319;DHT22;10317;47.254;11.314;2023-07-31T12:53:16;28.10;58.50
20319;DHT22;10317;47.254;11.314;2023-07-31T12:55:42;28.20;58.40
20319;DHT22;10317;47.254;11.314;2023-07-31T12:58:07;28.20;58.90
20319;DHT22;10317;47.254;11.314;2023-07-31T13:00:33;28.30;58.20
20319;DHT22;10317;47.254;11.314;2023-07-31T13:02:59;28.50;58.20
20319;DHT22;10317;47.254;11.314;2023-07-31T13:05:26;28.80;56.80
20319;DHT22;10317;47.254;11.314;2023-07-31T13:07:52;28.80;58.50
20319;DHT22;10317;47.254;11.314;2023-07-31T13:10:18;28.70;58.70
20319;DHT22;10317;47.254;11.314;2023-07-31T13:12:44;28.70;58.10
20319;DHT22;10317;47.254;11.314;2023-07-31T13:15:10;28.70;58.20
20319;DHT22;10317;47.254;11.314;2023-07-31T13:17:36;28.60;58.00
20319;DHT22;10317;47.254;11.314;2023-07-31T13:20:04;28.30;58.00
20319;DHT22;10317;47.254;11.314;2023-07-31T13:22:30;28.30;61.00
20319;DHT22;10317;47.254;11.314;2023-07-31T13:24:56;28.20;63.80
20319;DHT22;10317;47.254;11.314;2023-07-31T13:27:22;28.10;58.30
20319;DHT22;10317;47.254;11.314;2023-07-31T13:29:50;28.20;62.50
20319;DHT22;10317;47.254;11.314;2023-07-31T13:32:19;28.00;64.50
20319;DHT22;10317;47.254;11.314;2023-07-31T13:34:46;27.90;66.30
20319;DHT22;10317;47.254;11.314;2023-07-31T13:37:13;27.70;69.50
20319;DHT22;10317;47.254;11.314;2023-07-31T13:39:39;27.60;64.10
20319;DHT22;10317;47.254;11.314;2023-07-31T13:42:06;27.50;69.00
20319;DHT22;10317;47.254;11.314;2023-07-31T13:44:36;27.40;70.10
20319;DHT22;10317;47.254;11.314;2023-07-31T13:47:02;27.40;71.90
20319;DHT22;10317;47.254;11.314;2023-07-31T13:49:28;27.30;68.40
20319;DHT22;10317;47.254;11.314;2023-07-31T13:51:54;27.20;72.20
20319;DHT22;10317;47.254;11.314;2023-07-31T13:54:20;27.10;68.50
20319;DHT22;10317;47.254;11.314;2023-07-31T13:56:45;27.00;70.00
20319;DHT22;10317;47.254;11.314;2023-07-31T13:59:11;27.00;67.60
20319;DHT22;10317;47.254;11.314;2023-07-31T14:01:37;26.90;68.20
20319;DHT22;10317;47.254;11.314;2023-07-31T14:04:03;26.80;71.30
20319;DHT22;10317;47.254;11.314;2023-07-31T14:06:29;26.80;71.60
20319;DHT22;10317;47.254;11.314;2023-07-31T14:08:54;26.70;71.10
20319;DHT22;10317;47.254;11.314;2023-07-31T14:11:24;26.60;71.20
20319;DHT22;10317;47.254;11.314;2023-07-31T14:13:53;26.60;73.10
20319;DHT22;10317;47.254;11.314;2023-07-31T14:16:18;26.60;73.70
20319;DHT22;10317;47.254;11.314;2023-07-31T14:18:44;26.70;73.30
20319;DHT22;10317;47.254;11.314;2023-07-31T14:21:11;26.70;69.90
20319;DHT22;10317;47.254;11.314;2023-07-31T14:23:37;26.70;71.10
20319;DHT22;10317;47.254;11.314;2023-07-31T14:26:03;26.80;69.30
20319;DHT22;10317;47.254;11.314;2023-07-31T14:28:28;26.90;69.90
20319;DHT22;10317;47.254;11.314;2023-07-31T14:30:54;27.10;70.80
20319;DHT22;10317;47.254;11.314;2023-07-31T14:33:20;27.30;68.90
20319;DHT22;10317;47.254;11.314;2023-07-31T14:35:45;27.40;69.30
20319;DHT22;10317;47.254;11.314;2023-07-31T14:38:11;27.40;69.30
20319;DHT22;10317;47.254;11.314;2023-07-31T14:40:37;27.50;69.40
20319;DHT22;10317;47.254;11.314;2023-07-31T14:43:04;27.60;67.60
20319;DHT22;10317;47.254;11.314;2023-07-31T14:45:29;27.70;65.60
20319;DHT22;10317;47.254;11.314;2023-07-31T14:47:55;27.60;67.70
20319;DHT22;10317;47.254;11.314;2023-07-31T14:50:20;27.50;63.70
20319;DHT22;10317;47.254;11.314;2023-07-31T14:52:47;27.50;61.70
20319;DHT22;10317;47.254;11.314;2023-07-31T14:55:13;27.60;60.80
20319;DHT22;10317;47.254;11.314;2023-07-31T14:57:39;27.70;61.50
20319;DHT22;10317;47.254;11.314;2023-07-31T15:00:05;27.80;61.00
20319;DHT22;10317;47.254;11.314;2023-07-31T15:02:34;27.80;60.70
20319;DHT22;10317;47.254;11.314;2023-07-31T15:05:00;27.70;62.70
20319;DHT22;10317;47.254;11.314;2023-07-31T15:07:25;27.80;60.90
20319;DHT22;10317;47.254;11.314;2023-07-31T15:09:51;28.00;60.70
20319;DHT22;10317;47.254;11.314;2023-07-31T15:12:17;28.00;61.30
20319;DHT22;10317;47.254;11.314;2023-07-31T15:14:43;28.10;61.30
20319;DHT22;10317;47.254;11.314;2023-07-31T15:17:08;28.00;61.70